sensor_id;sensor_type;location;lat;lon;timestamp;P1;durP1;ratioP1;P2;durP2;ratioP2
43857;SDS011;29507;51.284;5.758;2022-08-19T00:00:33;24.10;;;19.13;;
43857;SDS011;29507;51.284;5.758;2022-08-19T00:03:03;27.15;;;19.85;;
43857;SDS011;29507;51.284;5.758;2022-08-19T00:05:29;28.55;;;22.65;;
43857;SDS011;29507;51.284;5.758;2022-08-19T00:07:55;28.55;;;19.65;;
43857;SDS011;29507;51.284;5.758;2022-08-19T00:10:21;26.42;;;20.55;;
43857;SDS011;29507;51.284;5.758;2022-08-19T00:12:47;25.05;;;20.65;;
43857;SDS011;29507;51.284;5.758;2022-08-19T00:15:13;27.85;;;21.90;;
43857;SDS011;29507;51.284;5.758;2022-08-19T00:17:42;29.10;;;22.80;;
43857;SDS011;29507;51.284;5.758;2022-08-19T00:20:10;29.10;;;23.38;;
43857;SDS011;29507;51.284;5.758;2022-08-19T00:22:38;26.17;;;21.15;;
43857;SDS011;29507;51.284;5.758;2022-08-19T00:25:04;28.02;;;22.52;;
43857;SDS011;29507;51.284;5.758;2022-08-19T00:27:31;33.92;;;23.42;;
43857;SDS011;29507;51.284;5.758;2022-08-19T00:29:57;32.72;;;23.40;;
43857;SDS011;29507;51.284;5.758;2022-08-19T00:32:23;33.28;;;24.58;;
43857;SDS011;29507;51.284;5.758;2022-08-19T00:34:51;29.98;;;22.67;;
43857;SDS011;29507;51.284;5.758;2022-08-19T00:37:17;33.10;;;25.27;;
43857;SDS011;29507;51.284;5.758;2022-08-19T00:39:48;32.15;;;24.10;;
43857;SDS011;29507;51.284;5.758;2022-08-19T00:42:14;30.95;;;22.73;;
43857;SDS011;29507;51.284;5.758;2022-08-19T00:44:40;35.53;;;25.17;;
43857;SDS011;29507;51.284;5.758;2022-08-19T00:47:06;36.28;;;25.70;;
43857;SDS011;29507;51.284;5.758;2022-08-19T00:52:26;35.78;;;26.55;;
43857;SDS011;29507;51.284;5.758;2022-08-19T00:54:58;38.88;;;26.83;;
43857;SDS011;29507;51.284;5.758;2022-08-19T00:57:32;36.35;;;28.00;;
43857;SDS011;29507;51.284;5.758;2022-08-19T01:00:03;38.42;;;28.20;;
43857;SDS011;29507;51.284;5.758;2022-08-19T01:02:34;37.20;;;26.90;;
43857;SDS011;29507;51.284;5.758;2022-08-19T01:05:00;38.00;;;26.88;;
43857;SDS011;29507;51.284;5.758;2022-08-19T01:07:28;37.38;;;27.17;;
43857;SDS011;29507;51.284;5.758;2022-08-19T01:09:53;38.20;;;27.15;;
43857;SDS011;29507;51.284;5.758;2022-08-19T01:12:19;35.65;;;27.15;;
43857;SDS011;29507;51.284;5.758;2022-08-19T01:14:46;39.60;;;27.98;;
43857;SDS011;29507;51.284;5.758;2022-08-19T01:17:13;34.80;;;25.98;;
43857;SDS011;29507;51.284;5.758;2022-08-19T01:19:41;41.30;;;27.35;;
43857;SDS011;29507;51.284;5.758;2022-08-19T01:24:48;37.13;;;27.55;;
43857;SDS011;29507;51.284;5.758;2022-08-19T01:27:15;38.78;;;28.20;;
43857;SDS011;29507;51.284;5.758;2022-08-19T01:29:41;36.03;;;27.15;;
43857;SDS011;29507;51.284;5.758;2022-08-19T01:32:11;35.03;;;26.10;;
43857;SDS011;29507;51.284;5.758;2022-08-19T01:34:39;35.08;;;26.30;;
43857;SDS011;29507;51.284;5.758;2022-08-19T01:37:06;45.70;;;27.65;;
43857;SDS011;29507;51.284;5.758;2022-08-19T01:39:36;42.55;;;28.15;;
43857;SDS011;29507;51.284;5.758;2022-08-19T01:42:04;44.65;;;29.65;;
43857;SDS011;29507;51.284;5.758;2022-08-19T01:44:34;42.25;;;28.90;;
43857;SDS011;29507;51.284;5.758;2022-08-19T01:47:01;38.53;;;28.50;;
43857;SDS011;29507;51.284;5.758;2022-08-19T01:49:28;41.80;;;28.58;;
43857;SDS011;29507;51.284;5.758;2022-08-19T01:51:53;40.67;;;27.60;;
43857;SDS011;29507;51.284;5.758;2022-08-19T01:54:20;42.33;;;28.73;;
43857;SDS011;29507;51.284;5.758;2022-08-19T01:56:47;42.13;;;29.38;;
43857;SDS011;29507;51.284;5.758;2022-08-19T01:59:16;43.80;;;30.23;;
43857;SDS011;29507;51.284;5.758;2022-08-19T02:01:45;44.17;;;29.20;;
43857;SDS011;29507;51.284;5.758;2022-08-19T02:04:11;42.30;;;28.73;;
43857;SDS011;29507;51.284;5.758;2022-08-19T02:06:37;41.42;;;27.75;;
43857;SDS011;29507;51.284;5.758;2022-08-19T02:09:03;45.72;;;27.60;;
43857;SDS011;29507;51.284;5.758;2022-08-19T02:11:31;43.45;;;29.80;;
43857;SDS011;29507;51.284;5.758;2022-08-19T02:13:59;48.10;;;29.33;;
43857;SDS011;29507;51.284;5.758;2022-08-19T02:16:27;46.33;;;29.23;;
43857;SDS011;29507;51.284;5.758;2022-08-19T02:18:53;49.50;;;30.30;;
43857;SDS011;29507;51.284;5.758;2022-08-19T02:21:20;45.97;;;29.13;;
43857;SDS011;29507;51.284;5.758;2022-08-19T02:23:47;48.67;;;29.48;;
43857;SDS011;29507;51.284;5.758;2022-08-19T02:26:14;45.50;;;28.35;;
43857;SDS011;29507;51.284;5.758;2022-08-19T02:28:41;43.88;;;27.48;;
43857;SDS011;29507;51.284;5.758;2022-08-19T02:31:11;47.78;;;28.27;;
43857;SDS011;29507;51.284;5.758;2022-08-19T02:33:39;46.72;;;27.52;;
43857;SDS011;29507;51.284;5.758;2022-08-19T02:36:06;45.08;;;26.60;;
43857;SDS011;29507;51.284;5.758;2022-08-19T02:38:32;48.25;;;28.27;;
43857;SDS011;29507;51.284;5.758;2022-08-19T02:41:00;50.22;;;29.35;;
43857;SDS011;29507;51.284;5.758;2022-08-19T02:43:30;46.67;;;29.27;;
43857;SDS011;29507;51.284;5.758;2022-08-19T02:45:57;53.67;;;29.67;;
43857;SDS011;29507;51.284;5.758;2022-08-19T02:48:23;53.00;;;29.98;;
43857;SDS011;29507;51.284;5.758;2022-08-19T02:50:50;45.85;;;27.95;;
43857;SDS011;29507;51.284;5.758;2022-08-19T02:53:23;53.00;;;28.90;;
43857;SDS011;29507;51.284;5.758;2022-08-19T02:55:51;49.33;;;27.77;;
43857;SDS011;29507;51.284;5.758;2022-08-19T02:58:17;49.50;;;28.58;;
43857;SDS011;29507;51.284;5.758;2022-08-19T03:00:48;48.92;;;29.15;;
43857;SDS011;29507;51.284;5.758;2022-08-19T03:03:16;46.80;;;28.73;;
43857;SDS011;29507;51.284;5.758;2022-08-19T03:05:42;47.35;;;27.02;;
43857;SDS011;29507;51.284;5.758;2022-08-19T03:08:08;51.88;;;30.05;;
43857;SDS011;29507;51.284;5.758;2022-08-19T03:10:46;52.13;;;29.73;;
43857;SDS011;29507;51.284;5.758;2022-08-19T03:13:14;48.75;;;29.17;;
43857;SDS011;29507;51.284;5.758;2022-08-19T03:15:46;52.92;;;28.67;;
43857;SDS011;29507;51.284;5.758;2022-08-19T03:18:12;49.47;;;29.90;;
43857;SDS011;29507;51.284;5.758;2022-08-19T03:20:49;53.67;;;29.52;;
43857;SDS011;29507;51.284;5.758;2022-08-19T03:23:19;54.75;;;29.05;;
43857;SDS011;29507;51.284;5.758;2022-08-19T03:25:46;51.25;;;28.65;;
43857;SDS011;29507;51.284;5.758;2022-08-19T03:28:15;52.10;;;30.60;;
43857;SDS011;29507;51.284;5.758;2022-08-19T03:30:41;59.28;;;29.98;;
43857;SDS011;29507;51.284;5.758;2022-08-19T03:33:21;55.22;;;30.30;;
43857;SDS011;29507;51.284;5.758;2022-08-19T03:35:46;56.08;;;29.48;;
43857;SDS011;29507;51.284;5.758;2022-08-19T03:38:12;55.45;;;29.52;;
43857;SDS011;29507;51.284;5.758;2022-08-19T03:40:37;59.78;;;31.80;;
43857;SDS011;29507;51.284;5.758;2022-08-19T03:43:03;61.45;;;32.95;;
43857;SDS011;29507;51.284;5.758;2022-08-19T03:45:29;56.03;;;29.58;;
43857;SDS011;29507;51.284;5.758;2022-08-19T03:47:55;56.83;;;30.15;;
43857;SDS011;29507;51.284;5.758;2022-08-19T03:50:21;57.88;;;31.70;;
43857;SDS011;29507;51.284;5.758;2022-08-19T03:52:50;63.90;;;31.20;;
43857;SDS011;29507;51.284;5.758;2022-08-19T03:55:17;58.08;;;30.83;;
43857;SDS011;29507;51.284;5.758;2022-08-19T03:57:43;56.17;;;30.70;;
43857;SDS011;29507;51.284;5.758;2022-08-19T04:00:10;62.70;;;31.27;;
43857;SDS011;29507;51.284;5.758;2022-08-19T04:02:37;61.42;;;29.67;;
43857;SDS011;29507;51.284;5.758;2022-08-19T04:05:03;58.70;;;30.65;;
43857;SDS011;29507;51.284;5.758;2022-08-19T04:07:30;65.47;;;33.67;;
43857;SDS011;29507;51.284;5.758;2022-08-19T04:09:56;63.85;;;33.22;;
43857;SDS011;29507;51.284;5.758;2022-08-19T04:12:21;60.80;;;32.08;;
43857;SDS011;29507;51.284;5.758;2022-08-19T04:14:47;67.03;;;32.50;;
43857;SDS011;29507;51.284;5.758;2022-08-19T04:17:13;64.68;;;33.38;;
43857;SDS011;29507;51.284;5.758;2022-08-19T04:19:39;73.25;;;33.13;;
43857;SDS011;29507;51.284;5.758;2022-08-19T04:22:07;66.60;;;32.63;;
43857;SDS011;29507;51.284;5.758;2022-08-19T04:24:34;69.55;;;34.00;;
43857;SDS011;29507;51.284;5.758;2022-08-19T04:27:00;64.63;;;32.33;;
43857;SDS011;29507;51.284;5.758;2022-08-19T04:29:28;70.60;;;33.83;;
43857;SDS011;29507;51.284;5.758;2022-08-19T04:31:55;71.10;;;34.22;;
43857;SDS011;29507;51.284;5.758;2022-08-19T04:34:24;74.82;;;33.85;;
43857;SDS011;29507;51.284;5.758;2022-08-19T04:36:51;74.68;;;33.58;;
43857;SDS011;29507;51.284;5.758;2022-08-19T04:39:20;70.72;;;32.67;;
43857;SDS011;29507;51.284;5.758;2022-08-19T04:42:09;70.03;;;31.38;;
43857;SDS011;29507;51.284;5.758;2022-08-19T04:44:53;72.75;;;30.83;;
43857;SDS011;29507;51.284;5.758;2022-08-19T04:47:19;60.53;;;29.58;;
43857;SDS011;29507;51.284;5.758;2022-08-19T04:49:45;75.82;;;32.20;;
43857;SDS011;29507;51.284;5.758;2022-08-19T04:52:11;71.72;;;32.97;;
43857;SDS011;29507;51.284;5.758;2022-08-19T04:54:36;95.43;;;37.10;;
43857;SDS011;29507;51.284;5.758;2022-08-19T04:57:02;88.82;;;36.03;;
43857;SDS011;29507;51.284;5.758;2022-08-19T04:59:31;81.63;;;34.55;;
43857;SDS011;29507;51.284;5.758;2022-08-19T05:01:58;85.05;;;33.83;;
43857;SDS011;29507;51.284;5.758;2022-08-19T05:04:23;73.78;;;31.17;;
43857;SDS011;29507;51.284;5.758;2022-08-19T05:06:49;103.40;;;40.22;;
43857;SDS011;29507;51.284;5.758;2022-08-19T05:09:17;108.05;;;41.72;;
43857;SDS011;29507;51.284;5.758;2022-08-19T05:11:43;108.95;;;40.60;;
43857;SDS011;29507;51.284;5.758;2022-08-19T05:14:09;122.35;;;42.72;;
43857;SDS011;29507;51.284;5.758;2022-08-19T05:16:37;111.53;;;41.25;;
43857;SDS011;29507;51.284;5.758;2022-08-19T05:19:03;104.25;;;41.92;;
43857;SDS011;29507;51.284;5.758;2022-08-19T05:21:47;102.45;;;41.20;;
43857;SDS011;29507;51.284;5.758;2022-08-19T05:24:31;102.50;;;38.95;;
43857;SDS011;29507;51.284;5.758;2022-08-19T05:26:59;98.07;;;38.83;;
43857;SDS011;29507;51.284;5.758;2022-08-19T05:29:27;101.38;;;40.78;;
43857;SDS011;29507;51.284;5.758;2022-08-19T05:31:53;104.03;;;40.63;;
43857;SDS011;29507;51.284;5.758;2022-08-19T05:34:20;97.15;;;39.88;;
43857;SDS011;29507;51.284;5.758;2022-08-19T05:36:47;95.03;;;41.55;;
43857;SDS011;29507;51.284;5.758;2022-08-19T05:39:17;100.20;;;39.90;;
43857;SDS011;29507;51.284;5.758;2022-08-19T05:41:46;92.35;;;40.15;;
43857;SDS011;29507;51.284;5.758;2022-08-19T05:44:18;93.28;;;39.42;;
43857;SDS011;29507;51.284;5.758;2022-08-19T05:46:46;84.57;;;37.23;;
43857;SDS011;29507;51.284;5.758;2022-08-19T05:49:13;78.60;;;39.58;;
43857;SDS011;29507;51.284;5.758;2022-08-19T05:51:40;74.63;;;36.10;;
43857;SDS011;29507;51.284;5.758;2022-08-19T05:54:07;67.43;;;34.78;;
43857;SDS011;29507;51.284;5.758;2022-08-19T05:56:34;64.03;;;32.67;;
43857;SDS011;29507;51.284;5.758;2022-08-19T05:59:03;60.35;;;32.53;;
43857;SDS011;29507;51.284;5.758;2022-08-19T06:01:33;48.53;;;30.52;;
43857;SDS011;29507;51.284;5.758;2022-08-19T06:03:59;52.00;;;30.10;;
43857;SDS011;29507;51.284;5.758;2022-08-19T06:06:25;50.83;;;28.73;;
43857;SDS011;29507;51.284;5.758;2022-08-19T06:08:50;50.83;;;29.02;;
43857;SDS011;29507;51.284;5.758;2022-08-19T06:13:44;45.87;;;27.87;;
43857;SDS011;29507;51.284;5.758;2022-08-19T06:16:12;48.35;;;28.70;;
43857;SDS011;29507;51.284;5.758;2022-08-19T06:18:45;50.53;;;28.80;;
43857;SDS011;29507;51.284;5.758;2022-08-19T06:21:11;52.80;;;29.85;;
43857;SDS011;29507;51.284;5.758;2022-08-19T06:23:36;49.55;;;29.30;;
43857;SDS011;29507;51.284;5.758;2022-08-19T06:26:02;51.38;;;28.77;;
43857;SDS011;29507;51.284;5.758;2022-08-19T06:28:29;50.92;;;28.77;;
43857;SDS011;29507;51.284;5.758;2022-08-19T06:30:54;49.50;;;28.30;;
43857;SDS011;29507;51.284;5.758;2022-08-19T06:33:20;49.67;;;27.55;;
43857;SDS011;29507;51.284;5.758;2022-08-19T06:35:46;43.65;;;26.75;;
43857;SDS011;29507;51.284;5.758;2022-08-19T06:38:11;51.53;;;28.73;;
43857;SDS011;29507;51.284;5.758;2022-08-19T06:40:37;48.85;;;27.42;;
43857;SDS011;29507;51.284;5.758;2022-08-19T06:43:03;47.67;;;27.50;;
43857;SDS011;29507;51.284;5.758;2022-08-19T06:45:29;47.15;;;26.95;;
43857;SDS011;29507;51.284;5.758;2022-08-19T06:47:55;50.22;;;26.83;;
43857;SDS011;29507;51.284;5.758;2022-08-19T06:50:24;44.42;;;24.75;;
43857;SDS011;29507;51.284;5.758;2022-08-19T06:52:50;42.50;;;24.45;;
43857;SDS011;29507;51.284;5.758;2022-08-19T06:55:16;46.28;;;26.67;;
43857;SDS011;29507;51.284;5.758;2022-08-19T06:57:42;41.08;;;24.35;;
43857;SDS011;29507;51.284;5.758;2022-08-19T07:00:11;44.35;;;24.67;;
43857;SDS011;29507;51.284;5.758;2022-08-19T07:02:39;43.20;;;24.48;;
43857;SDS011;29507;51.284;5.758;2022-08-19T07:05:06;37.00;;;23.70;;
43857;SDS011;29507;51.284;5.758;2022-08-19T07:07:32;40.60;;;24.00;;
43857;SDS011;29507;51.284;5.758;2022-08-19T07:09:58;39.55;;;23.83;;
43857;SDS011;29507;51.284;5.758;2022-08-19T07:12:24;44.60;;;22.52;;
43857;SDS011;29507;51.284;5.758;2022-08-19T07:14:51;34.47;;;21.63;;
43857;SDS011;29507;51.284;5.758;2022-08-19T07:17:17;35.00;;;20.50;;
43857;SDS011;29507;51.284;5.758;2022-08-19T07:19:44;33.33;;;20.75;;
43857;SDS011;29507;51.284;5.758;2022-08-19T07:22:10;35.40;;;20.58;;
43857;SDS011;29507;51.284;5.758;2022-08-19T07:24:36;35.03;;;21.33;;
43857;SDS011;29507;51.284;5.758;2022-08-19T07:27:04;32.13;;;20.73;;
43857;SDS011;29507;51.284;5.758;2022-08-19T07:29:32;30.80;;;19.52;;
43857;SDS011;29507;51.284;5.758;2022-08-19T07:31:59;31.88;;;18.60;;
43857;SDS011;29507;51.284;5.758;2022-08-19T07:34:26;31.80;;;18.55;;
43857;SDS011;29507;51.284;5.758;2022-08-19T07:36:54;33.58;;;21.00;;
43857;SDS011;29507;51.284;5.758;2022-08-19T07:39:22;32.47;;;19.75;;
43857;SDS011;29507;51.284;5.758;2022-08-19T07:41:50;30.88;;;18.83;;
43857;SDS011;29507;51.284;5.758;2022-08-19T07:44:16;28.98;;;18.33;;
43857;SDS011;29507;51.284;5.758;2022-08-19T07:46:44;33.30;;;17.80;;
43857;SDS011;29507;51.284;5.758;2022-08-19T07:51:44;24.45;;;15.95;;
43857;SDS011;29507;51.284;5.758;2022-08-19T07:54:14;31.58;;;18.02;;
43857;SDS011;29507;51.284;5.758;2022-08-19T07:56:40;28.98;;;17.35;;
43857;SDS011;29507;51.284;5.758;2022-08-19T07:59:06;28.08;;;16.15;;
43857;SDS011;29507;51.284;5.758;2022-08-19T08:01:34;26.40;;;15.75;;
43857;SDS011;29507;51.284;5.758;2022-08-19T08:04:00;26.27;;;16.90;;
43857;SDS011;29507;51.284;5.758;2022-08-19T08:06:44;22.15;;;15.70;;
43857;SDS011;29507;51.284;5.758;2022-08-19T08:09:30;24.40;;;15.52;;
43857;SDS011;29507;51.284;5.758;2022-08-19T08:12:12;25.02;;;14.73;;
43857;SDS011;29507;51.284;5.758;2022-08-19T08:14:45;21.25;;;14.18;;
43857;SDS011;29507;51.284;5.758;2022-08-19T08:17:13;22.63;;;15.20;;
43857;SDS011;29507;51.284;5.758;2022-08-19T08:19:40;19.40;;;13.05;;
43857;SDS011;29507;51.284;5.758;2022-08-19T08:22:08;20.48;;;12.70;;
43857;SDS011;29507;51.284;5.758;2022-08-19T08:24:54;21.67;;;13.95;;
43857;SDS011;29507;51.284;5.758;2022-08-19T08:27:23;20.83;;;13.52;;
43857;SDS011;29507;51.284;5.758;2022-08-19T08:29:49;20.98;;;13.32;;
43857;SDS011;29507;51.284;5.758;2022-08-19T08:32:15;21.90;;;12.48;;
43857;SDS011;29507;51.284;5.758;2022-08-19T08:34:41;19.00;;;13.35;;
43857;SDS011;29507;51.284;5.758;2022-08-19T08:37:07;19.75;;;12.57;;
43857;SDS011;29507;51.284;5.758;2022-08-19T08:39:33;18.15;;;10.48;;
43857;SDS011;29507;51.284;5.758;2022-08-19T08:47:26;11.63;;;8.18;;
43857;SDS011;29507;51.284;5.758;2022-08-19T08:50:07;15.48;;;9.65;;
43857;SDS011;29507;51.284;5.758;2022-08-19T08:52:45;15.98;;;9.38;;
43857;SDS011;29507;51.284;5.758;2022-08-19T08:55:15;12.38;;;9.13;;
43857;SDS011;29507;51.284;5.758;2022-08-19T09:00:19;15.40;;;10.07;;
43857;SDS011;29507;51.284;5.758;2022-08-19T09:02:51;13.45;;;9.23;;
43857;SDS011;29507;51.284;5.758;2022-08-19T09:05:19;13.30;;;7.90;;
43857;SDS011;29507;51.284;5.758;2022-08-19T09:07:50;9.10;;;6.07;;
43857;SDS011;29507;51.284;5.758;2022-08-19T09:10:32;13.30;;;6.72;;
43857;SDS011;29507;51.284;5.758;2022-08-19T09:13:13;10.80;;;6.43;;
43857;SDS011;29507;51.284;5.758;2022-08-19T09:16:02;10.20;;;5.90;;
43857;SDS011;29507;51.284;5.758;2022-08-19T09:18:46;10.55;;;6.75;;
43857;SDS011;29507;51.284;5.758;2022-08-19T09:21:17;10.80;;;7.38;;
43857;SDS011;29507;51.284;5.758;2022-08-19T09:23:43;13.20;;;5.53;;
43857;SDS011;29507;51.284;5.758;2022-08-19T09:26:11;9.15;;;5.38;;
43857;SDS011;29507;51.284;5.758;2022-08-19T09:28:43;9.73;;;5.50;;
43857;SDS011;29507;51.284;5.758;2022-08-19T09:31:11;9.57;;;5.50;;
43857;SDS011;29507;51.284;5.758;2022-08-19T09:33:38;7.18;;;5.10;;
43857;SDS011;29507;51.284;5.758;2022-08-19T09:36:05;8.32;;;4.93;;
43857;SDS011;29507;51.284;5.758;2022-08-19T09:41:05;9.43;;;5.47;;
43857;SDS011;29507;51.284;5.758;2022-08-19T09:43:32;10.15;;;6.05;;
43857;SDS011;29507;51.284;5.758;2022-08-19T09:46:01;10.57;;;5.95;;
43857;SDS011;29507;51.284;5.758;2022-08-19T09:48:32;9.50;;;7.07;;
43857;SDS011;29507;51.284;5.758;2022-08-19T09:53:31;10.63;;;6.18;;
43857;SDS011;29507;51.284;5.758;2022-08-19T09:55:57;10.48;;;6.70;;
43857;SDS011;29507;51.284;5.758;2022-08-19T09:58:22;9.68;;;6.00;;
43857;SDS011;29507;51.284;5.758;2022-08-19T10:00:52;10.70;;;6.65;;
43857;SDS011;29507;51.284;5.758;2022-08-19T10:03:19;10.63;;;6.85;;
43857;SDS011;29507;51.284;5.758;2022-08-19T10:05:45;9.50;;;5.28;;
43857;SDS011;29507;51.284;5.758;2022-08-19T10:08:14;8.60;;;5.80;;
43857;SDS011;29507;51.284;5.758;2022-08-19T10:10:41;6.93;;;5.65;;
43857;SDS011;29507;51.284;5.758;2022-08-19T10:13:10;8.43;;;5.40;;
43857;SDS011;29507;51.284;5.758;2022-08-19T10:15:36;8.75;;;6.00;;
43857;SDS011;29507;51.284;5.758;2022-08-19T10:18:05;12.77;;;6.35;;
43857;SDS011;29507;51.284;5.758;2022-08-19T10:20:32;8.00;;;5.38;;
43857;SDS011;29507;51.284;5.758;2022-08-19T10:23:00;6.72;;;4.53;;
43857;SDS011;29507;51.284;5.758;2022-08-19T10:25:27;9.52;;;4.93;;
43857;SDS011;29507;51.284;5.758;2022-08-19T10:27:53;5.53;;;4.00;;
43857;SDS011;29507;51.284;5.758;2022-08-19T10:30:20;7.90;;;4.80;;
43857;SDS011;29507;51.284;5.758;2022-08-19T10:32:46;8.18;;;4.65;;
43857;SDS011;29507;51.284;5.758;2022-08-19T10:35:12;7.15;;;3.90;;
43857;SDS011;29507;51.284;5.758;2022-08-19T10:37:39;5.88;;;5.03;;
43857;SDS011;29507;51.284;5.758;2022-08-19T10:40:05;8.77;;;4.80;;
43857;SDS011;29507;51.284;5.758;2022-08-19T10:42:33;9.37;;;4.30;;
43857;SDS011;29507;51.284;5.758;2022-08-19T10:45:00;6.28;;;3.95;;
43857;SDS011;29507;51.284;5.758;2022-08-19T10:47:26;7.03;;;4.25;;
43857;SDS011;29507;51.284;5.758;2022-08-19T10:49:52;6.22;;;3.85;;
43857;SDS011;29507;51.284;5.758;2022-08-19T10:52:42;7.57;;;3.72;;
43857;SDS011;29507;51.284;5.758;2022-08-19T10:55:09;5.78;;;3.50;;
43857;SDS011;29507;51.284;5.758;2022-08-19T10:57:53;8.10;;;3.90;;
43857;SDS011;29507;51.284;5.758;2022-08-19T11:00:22;7.45;;;3.88;;
43857;SDS011;29507;51.284;5.758;2022-08-19T11:02:49;6.75;;;3.53;;
43857;SDS011;29507;51.284;5.758;2022-08-19T11:05:15;4.57;;;3.30;;
43857;SDS011;29507;51.284;5.758;2022-08-19T11:07:42;10.50;;;4.07;;
43857;SDS011;29507;51.284;5.758;2022-08-19T11:10:09;8.80;;;4.30;;
43857;SDS011;29507;51.284;5.758;2022-08-19T11:12:37;6.47;;;3.80;;
43857;SDS011;29507;51.284;5.758;2022-08-19T11:15:07;6.90;;;3.83;;
43857;SDS011;29507;51.284;5.758;2022-08-19T11:17:35;7.40;;;3.90;;
43857;SDS011;29507;51.284;5.758;2022-08-19T11:20:09;10.85;;;3.80;;
43857;SDS011;29507;51.284;5.758;2022-08-19T11:22:36;7.80;;;4.10;;
43857;SDS011;29507;51.284;5.758;2022-08-19T11:25:03;7.65;;;4.35;;
43857;SDS011;29507;51.284;5.758;2022-08-19T11:27:29;6.10;;;3.40;;
43857;SDS011;29507;51.284;5.758;2022-08-19T11:29:55;5.60;;;3.85;;
43857;SDS011;29507;51.284;5.758;2022-08-19T11:32:21;5.90;;;3.85;;
43857;SDS011;29507;51.284;5.758;2022-08-19T11:34:46;5.28;;;3.63;;
43857;SDS011;29507;51.284;5.758;2022-08-19T11:37:12;8.20;;;3.60;;
43857;SDS011;29507;51.284;5.758;2022-08-19T11:39:38;6.85;;;4.32;;
43857;SDS011;29507;51.284;5.758;2022-08-19T11:42:04;7.45;;;3.75;;
43857;SDS011;29507;51.284;5.758;2022-08-19T11:44:51;5.82;;;3.90;;
43857;SDS011;29507;51.284;5.758;2022-08-19T11:47:17;6.57;;;3.20;;
43857;SDS011;29507;51.284;5.758;2022-08-19T11:49:43;6.63;;;3.28;;
43857;SDS011;29507;51.284;5.758;2022-08-19T11:52:08;7.75;;;3.90;;
43857;SDS011;29507;51.284;5.758;2022-08-19T11:54:35;4.55;;;3.00;;
43857;SDS011;29507;51.284;5.758;2022-08-19T11:57:02;5.28;;;3.00;;
43857;SDS011;29507;51.284;5.758;2022-08-19T11:59:28;5.15;;;3.40;;
43857;SDS011;29507;51.284;5.758;2022-08-19T12:01:54;6.80;;;3.60;;
43857;SDS011;29507;51.284;5.758;2022-08-19T12:04:20;6.63;;;2.92;;
43857;SDS011;29507;51.284;5.758;2022-08-19T12:06:47;5.03;;;2.85;;
43857;SDS011;29507;51.284;5.758;2022-08-19T12:09:13;4.68;;;2.72;;
43857;SDS011;29507;51.284;5.758;2022-08-19T12:11:40;5.63;;;2.90;;
43857;SDS011;29507;51.284;5.758;2022-08-19T12:14:06;5.38;;;3.00;;
43857;SDS011;29507;51.284;5.758;2022-08-19T12:19:00;6.93;;;4.07;;
43857;SDS011;29507;51.284;5.758;2022-08-19T12:21:28;7.63;;;4.03;;
43857;SDS011;29507;51.284;5.758;2022-08-19T12:23:56;5.97;;;3.40;;
43857;SDS011;29507;51.284;5.758;2022-08-19T12:26:24;8.27;;;3.17;;
43857;SDS011;29507;51.284;5.758;2022-08-19T12:28:51;5.28;;;2.83;;
43857;SDS011;29507;51.284;5.758;2022-08-19T12:31:17;7.07;;;2.90;;
43857;SDS011;29507;51.284;5.758;2022-08-19T12:33:44;7.78;;;3.38;;
43857;SDS011;29507;51.284;5.758;2022-08-19T12:36:12;5.80;;;3.47;;
43857;SDS011;29507;51.284;5.758;2022-08-19T12:38:39;5.00;;;3.65;;
43857;SDS011;29507;51.284;5.758;2022-08-19T12:41:10;4.95;;;3.47;;
43857;SDS011;29507;51.284;5.758;2022-08-19T12:43:37;7.25;;;3.92;;
43857;SDS011;29507;51.284;5.758;2022-08-19T12:46:04;8.15;;;5.45;;
43857;SDS011;29507;51.284;5.758;2022-08-19T12:48:31;8.43;;;4.88;;
43857;SDS011;29507;51.284;5.758;2022-08-19T12:50:57;8.32;;;4.93;;
43857;SDS011;29507;51.284;5.758;2022-08-19T12:53:23;7.93;;;4.43;;
43857;SDS011;29507;51.284;5.758;2022-08-19T12:55:56;7.03;;;3.95;;
43857;SDS011;29507;51.284;5.758;2022-08-19T12:58:25;7.65;;;4.68;;
43857;SDS011;29507;51.284;5.758;2022-08-19T13:00:51;8.38;;;4.85;;
43857;SDS011;29507;51.284;5.758;2022-08-19T13:03:17;9.10;;;5.25;;
43857;SDS011;29507;51.284;5.758;2022-08-19T13:05:43;7.63;;;4.78;;
43857;SDS011;29507;51.284;5.758;2022-08-19T13:08:09;8.85;;;5.05;;
43857;SDS011;29507;51.284;5.758;2022-08-19T13:10:36;7.93;;;4.60;;
43857;SDS011;29507;51.284;5.758;2022-08-19T13:13:04;7.88;;;4.93;;
43857;SDS011;29507;51.284;5.758;2022-08-19T13:15:37;6.75;;;4.20;;
43857;SDS011;29507;51.284;5.758;2022-08-19T13:18:05;7.22;;;4.60;;
43857;SDS011;29507;51.284;5.758;2022-08-19T13:20:34;5.47;;;3.05;;
43857;SDS011;29507;51.284;5.758;2022-08-19T13:23:00;7.20;;;3.60;;
43857;SDS011;29507;51.284;5.758;2022-08-19T13:25:26;6.22;;;3.50;;
43857;SDS011;29507;51.284;5.758;2022-08-19T13:27:52;5.93;;;3.10;;
43857;SDS011;29507;51.284;5.758;2022-08-19T13:30:18;4.75;;;2.85;;
43857;SDS011;29507;51.284;5.758;2022-08-19T13:33:04;5.57;;;2.80;;
43857;SDS011;29507;51.284;5.758;2022-08-19T13:35:37;4.80;;;2.58;;
43857;SDS011;29507;51.284;5.758;2022-08-19T13:38:04;3.63;;;1.88;;
43857;SDS011;29507;51.284;5.758;2022-08-19T13:40:30;4.68;;;1.98;;
43857;SDS011;29507;51.284;5.758;2022-08-19T13:42:58;4.30;;;2.40;;
43857;SDS011;29507;51.284;5.758;2022-08-19T13:45:24;3.80;;;2.00;;
43857;SDS011;29507;51.284;5.758;2022-08-19T13:47:52;5.40;;;2.90;;
43857;SDS011;29507;51.284;5.758;2022-08-19T13:50:20;4.00;;;2.35;;
43857;SDS011;29507;51.284;5.758;2022-08-19T13:52:47;6.07;;;2.42;;
43857;SDS011;29507;51.284;5.758;2022-08-19T13:55:14;4.10;;;2.30;;
43857;SDS011;29507;51.284;5.758;2022-08-19T13:57:41;2.78;;;2.03;;
43857;SDS011;29507;51.284;5.758;2022-08-19T14:00:12;3.78;;;2.47;;
43857;SDS011;29507;51.284;5.758;2022-08-19T14:02:40;4.68;;;2.50;;
43857;SDS011;29507;51.284;5.758;2022-08-19T14:05:07;4.82;;;2.15;;
43857;SDS011;29507;51.284;5.758;2022-08-19T14:07:35;5.47;;;2.33;;
43857;SDS011;29507;51.284;5.758;2022-08-19T14:10:01;3.30;;;2.10;;
43857;SDS011;29507;51.284;5.758;2022-08-19T14:12:28;4.45;;;2.30;;
43857;SDS011;29507;51.284;5.758;2022-08-19T14:14:54;4.50;;;2.25;;
43857;SDS011;29507;51.284;5.758;2022-08-19T14:17:20;5.43;;;2.20;;
43857;SDS011;29507;51.284;5.758;2022-08-19T14:19:46;4.47;;;2.15;;
43857;SDS011;29507;51.284;5.758;2022-08-19T14:22:12;3.92;;;2.30;;
43857;SDS011;29507;51.284;5.758;2022-08-19T14:24:38;4.28;;;2.17;;
43857;SDS011;29507;51.284;5.758;2022-08-19T14:27:06;4.68;;;2.85;;
43857;SDS011;29507;51.284;5.758;2022-08-19T14:29:33;5.07;;;2.03;;
43857;SDS011;29507;51.284;5.758;2022-08-19T14:31:59;4.97;;;2.13;;
43857;SDS011;29507;51.284;5.758;2022-08-19T14:34:25;4.53;;;2.13;;
43857;SDS011;29507;51.284;5.758;2022-08-19T14:36:51;3.53;;;2.60;;
43857;SDS011;29507;51.284;5.758;2022-08-19T14:39:17;4.82;;;2.50;;
43857;SDS011;29507;51.284;5.758;2022-08-19T14:41:43;3.67;;;2.20;;
43857;SDS011;29507;51.284;5.758;2022-08-19T14:44:10;7.85;;;2.40;;
43857;SDS011;29507;51.284;5.758;2022-08-19T14:46:37;4.15;;;2.03;;
43857;SDS011;29507;51.284;5.758;2022-08-19T14:49:05;5.82;;;2.83;;
43857;SDS011;29507;51.284;5.758;2022-08-19T14:51:31;4.40;;;2.38;;
43857;SDS011;29507;51.284;5.758;2022-08-19T14:53:57;5.95;;;2.95;;
43857;SDS011;29507;51.284;5.758;2022-08-19T14:56:24;4.70;;;2.17;;
43857;SDS011;29507;51.284;5.758;2022-08-19T14:58:51;5.53;;;2.67;;
43857;SDS011;29507;51.284;5.758;2022-08-19T15:01:18;5.00;;;2.60;;